Terminal Aerodrome Forecast
Issued by NWS

Home | Current Version | Previous Version | Text Only | Print | Product List | Glossary On
Versions: 1 2 3 4 5 6 7 8 9 10 11 12 13 14 15
000
FTUS45 KSLC 191120
TAFEVW
TAF
KEVW 191120Z 1912/2012 24011KT P6SM -SHRA BKN050 OVC080
     FM191300 26010G16KT P6SM -SHRA SCT015 BKN025
     FM191900 27020G28KT P6SM VCSH SCT030 BKN050
     FM192300 25014G25KT P6SM SCT050 BKN070
     FM200300 22008KT P6SM FEW070=

USA.gov is the U.S. government's official web portal to all federal, state and local government web resources and services.